createdAt,value
2022-12-03T12:43:34.960Z,101467.84
2022-12-03T12:46:46.071Z,101467.84
2022-12-03T12:49:01.601Z,101465.25
2022-12-03T12:51:29.564Z,101468.03
2022-12-03T12:53:57.479Z,101459.75
2022-12-03T12:56:26.318Z,101459.44
2022-12-03T12:58:54.490Z,101456.34
2022-12-03T13:01:26.471Z,101457.72
2022-12-03T13:03:54.825Z,101458.16
2022-12-03T13:06:31.339Z,101454.31
2022-12-03T13:09:01.270Z,101452.25
2022-12-03T13:11:45.843Z,101452.47
2022-12-03T13:14:19.891Z,101454.28
2022-12-03T13:16:49.259Z,101448.22
2022-12-03T13:19:23.169Z,101446.87
2022-12-03T13:22:03.225Z,101461.09
2022-12-03T13:24:37.041Z,101451.84
2022-12-03T13:27:13.936Z,101461.44
2022-12-03T13:29:42.306Z,101454.91
2022-12-03T13:32:16.036Z,101461.63
2022-12-03T13:34:44.986Z,101457.88
2022-12-03T13:37:15.783Z,101446.44
2022-12-03T13:39:51.148Z,101444.44
2022-12-03T13:42:41.566Z,101435.94
2022-12-03T13:45:15.119Z,101441.56
2022-12-03T13:47:47.030Z,101437.28
2022-12-03T13:50:24.583Z,101440.41
2022-12-03T13:52:53.121Z,101436.72
2022-12-03T13:55:31.472Z,101434.25
2022-12-03T13:57:59.393Z,101434.13
2022-12-03T14:00:26.968Z,101439.00
2022-12-03T14:02:55.028Z,101432.34
2022-12-03T14:05:22.692Z,101436.50
2022-12-03T14:07:50.273Z,101439.69
2022-12-03T14:10:18.286Z,101440.81
2022-12-03T14:12:45.814Z,101434.25
2022-12-03T14:15:14.400Z,101434.72
2022-12-03T14:17:42.388Z,101438.66
2022-12-03T14:20:10.670Z,101436.38
2022-12-03T14:22:39.133Z,101445.47
2022-12-03T14:25:07.374Z,101440.50
2022-12-03T14:27:35.354Z,101441.78
2022-12-03T14:30:04.112Z,101441.78
2022-12-03T14:32:32.027Z,101445.03
2022-12-03T14:35:00.462Z,101437.47
2022-12-03T14:37:29.592Z,101437.34
2022-12-03T14:39:57.585Z,101448.66
2022-12-03T14:42:25.355Z,101448.66
2022-12-03T14:44:52.962Z,101444.84
2022-12-03T14:47:25.264Z,101446.75
2022-12-03T14:49:53.326Z,101447.06
2022-12-03T14:52:21.585Z,101455.44
2022-12-03T14:54:49.506Z,101456.91
2022-12-03T14:57:17.329Z,101457.37
2022-12-03T14:59:47.033Z,101455.78
2022-12-03T15:02:14.696Z,101459.28
2022-12-03T15:04:42.301Z,101456.53
2022-12-03T15:07:10.158Z,101457.75
2022-12-03T15:09:37.975Z,101458.72
2022-12-03T15:12:06.052Z,101455.00
2022-12-03T15:14:34.043Z,101456.12
2022-12-03T15:17:01.686Z,101448.31
2022-12-03T15:19:29.571Z,101461.44
2022-12-03T15:21:57.397Z,101456.28
2022-12-03T15:24:24.928Z,101463.97
2022-12-03T15:26:53.577Z,101465.09
2022-12-03T15:29:21.814Z,101465.53
2022-12-03T15:31:49.413Z,101466.69
2022-12-03T15:34:22.182Z,101474.22
2022-12-03T15:36:51.238Z,101469.53
2022-12-03T15:39:19.465Z,101472.62
2022-12-03T15:41:47.123Z,101474.50
2022-12-03T15:44:15.114Z,101469.28
2022-12-03T15:46:42.732Z,101475.38
2022-12-03T15:49:10.325Z,101469.16
2022-12-03T15:51:38.193Z,101471.00
2022-12-03T15:54:06.547Z,101473.13
2022-12-03T15:56:37.635Z,101476.66
2022-12-03T15:59:06.026Z,101471.19
2022-12-03T16:01:33.989Z,101467.66
2022-12-03T16:04:02.173Z,101464.63
2022-12-03T16:06:30.074Z,101466.12
2022-12-03T16:08:57.771Z,101465.75
2022-12-03T16:11:26.053Z,101472.81
2022-12-03T16:13:53.605Z,101468.16
2022-12-03T16:16:21.224Z,101465.97
2022-12-03T16:18:49.189Z,101464.72
2022-12-03T16:21:18.860Z,101461.69
2022-12-03T16:23:49.889Z,101463.09
2022-12-03T16:26:17.438Z,101468.78
2022-12-03T16:28:45.088Z,101470.75
2022-12-03T16:31:13.187Z,101460.56
2022-12-03T16:33:40.727Z,101465.91
2022-12-03T16:36:08.640Z,101465.53
2022-12-03T16:38:36.831Z,101468.34
2022-12-03T16:41:04.492Z,101467.37
2022-12-03T16:43:35.645Z,101462.59
2022-12-03T16:46:20.396Z,101476.97
2022-12-03T16:48:48.582Z,101471.34
2022-12-03T16:51:19.383Z,101474.72
2022-12-03T16:53:48.267Z,101473.44
2022-12-03T16:56:16.961Z,101471.41
2022-12-03T16:58:45.212Z,101471.88
2022-12-03T17:01:13.068Z,101469.53
2022-12-03T17:03:42.237Z,101474.31
2022-12-03T17:06:10.053Z,101476.44
2022-12-03T17:08:37.732Z,101474.25
2022-12-03T17:11:05.889Z,101471.91
2022-12-03T17:13:33.563Z,101465.41
2022-12-03T17:16:02.113Z,101475.94
2022-12-03T17:18:30.146Z,101475.62
2022-12-03T17:20:58.008Z,101475.53
2022-12-03T17:23:25.633Z,101476.47
2022-12-03T17:25:53.501Z,101473.50
2022-12-03T17:28:21.038Z,101480.59
2022-12-03T17:30:48.717Z,101474.00
2022-12-03T17:33:16.684Z,101480.03
2022-12-03T17:35:45.596Z,101477.47
2022-12-03T17:38:13.118Z,101473.09
2022-12-03T17:40:41.159Z,101474.53
2022-12-03T17:43:08.710Z,101473.50
2022-12-03T17:45:36.830Z,101475.41
2022-12-03T17:48:05.462Z,101473.34
2022-12-03T17:50:34.291Z,101468.56
2022-12-03T17:53:05.359Z,101475.69
2022-12-03T17:55:41.004Z,101473.09
2022-12-03T17:58:13.335Z,101467.37
2022-12-03T18:00:41.611Z,101470.44
2022-12-03T18:03:09.502Z,101464.13
2022-12-03T18:05:37.180Z,101458.56
2022-12-03T18:08:05.070Z,101451.25
2022-12-03T18:10:32.992Z,101462.41
2022-12-03T18:13:02.107Z,101458.22
2022-12-03T18:15:30.719Z,101459.03
2022-12-03T18:17:58.981Z,101457.25
2022-12-03T18:20:26.731Z,101457.03
2022-12-03T18:22:54.353Z,101455.84
2022-12-03T18:25:26.042Z,101458.41
2022-12-03T18:27:53.638Z,101459.47
2022-12-03T18:30:21.407Z,101470.06
2022-12-03T18:32:52.993Z,101458.84
2022-12-03T18:35:20.813Z,101468.81
2022-12-03T18:37:50.815Z,101466.41
2022-12-03T18:40:23.927Z,101461.97
2022-12-03T18:42:51.700Z,101466.59
2022-12-03T18:45:20.024Z,101462.72
2022-12-03T18:47:47.793Z,101458.53
2022-12-03T18:50:15.449Z,101453.47
2022-12-03T18:52:43.418Z,101466.94
2022-12-03T18:55:18.835Z,101461.06
2022-12-03T18:57:47.417Z,101455.69
2022-12-03T19:00:16.046Z,101464.47
2022-12-03T19:03:02.607Z,101458.13
2022-12-03T19:05:34.815Z,101459.56
2022-12-03T19:08:03.495Z,101447.25
2022-12-03T19:10:31.860Z,101446.84
2022-12-03T19:12:59.710Z,101445.16
2022-12-03T19:15:27.649Z,101446.69
2022-12-03T19:17:57.656Z,101449.88
2022-12-03T19:20:25.393Z,101453.28
2022-12-03T19:22:53.260Z,101445.28
2022-12-03T19:25:21.814Z,101457.63
2022-12-03T19:27:50.793Z,101465.19
2022-12-03T19:30:19.220Z,101459.19
2022-12-03T19:32:51.608Z,101471.37
2022-12-03T19:35:21.345Z,101474.03
2022-12-03T19:37:50.190Z,101469.62
2022-12-03T19:40:18.254Z,101465.13
2022-12-03T19:42:46.484Z,101466.97
2022-12-03T19:45:14.767Z,101471.44
2022-12-03T19:47:42.789Z,101475.47
2022-12-03T19:50:11.326Z,101472.94
2022-12-03T19:52:39.379Z,101472.59
2022-12-03T19:55:07.617Z,101472.16
2022-12-03T19:57:35.561Z,101470.50
2022-12-03T20:00:05.414Z,101478.13
2022-12-03T20:02:39.999Z,101485.69
2022-12-03T20:05:08.313Z,101481.91
2022-12-03T20:07:36.148Z,101488.25
2022-12-03T20:10:04.955Z,101489.34
2022-12-03T20:12:33.284Z,101484.87
2022-12-03T20:15:01.118Z,101487.37
2022-12-03T20:17:28.796Z,101481.09
2022-12-03T20:19:57.249Z,101476.31
2022-12-03T20:22:25.628Z,101485.75
2022-12-03T20:24:53.680Z,101487.00
2022-12-03T20:27:23.155Z,101491.09
2022-12-03T20:29:51.252Z,101482.62
2022-12-03T20:32:19.182Z,101480.47
2022-12-03T20:34:47.262Z,101475.19
2022-12-03T20:37:15.222Z,101479.62
2022-12-03T20:39:43.187Z,101471.81
2022-12-03T20:42:11.688Z,101472.25
2022-12-03T20:44:39.527Z,101470.13
2022-12-03T20:47:07.373Z,101466.78
2022-12-03T20:49:35.745Z,101468.84
2022-12-03T20:52:04.884Z,101472.97
2022-12-03T20:54:32.839Z,101480.06
2022-12-03T20:57:00.997Z,101480.38
2022-12-03T20:59:29.027Z,101485.81
2022-12-03T21:01:56.884Z,101486.47
2022-12-03T21:04:24.870Z,101483.91
2022-12-03T21:06:52.442Z,101481.47
2022-12-03T21:09:20.277Z,101488.69
2022-12-03T21:11:48.443Z,101482.31
2022-12-03T21:14:16.086Z,101482.69
2022-12-03T21:19:38.562Z,101481.06
2022-12-03T21:22:06.574Z,101479.75
2022-12-03T21:24:34.452Z,101480.69
2022-12-03T21:27:03.690Z,101488.69
2022-12-03T21:29:31.594Z,101492.09
2022-12-03T21:31:59.396Z,101494.66
2022-12-03T21:34:31.327Z,101486.56
2022-12-03T21:37:03.614Z,101483.81
2022-12-03T21:39:31.755Z,101487.56
2022-12-03T21:42:33.353Z,101487.03
2022-12-03T21:44:47.211Z,101484.44
2022-12-03T21:47:14.900Z,101490.66
2022-12-03T21:49:42.666Z,101482.75
2022-12-03T21:52:10.995Z,101487.16
2022-12-03T21:54:38.572Z,101479.31
2022-12-03T21:57:06.375Z,101481.72
2022-12-03T21:59:34.653Z,101485.06
2022-12-03T22:02:02.547Z,101475.28
2022-12-03T22:04:30.573Z,101468.97
2022-12-03T22:06:58.130Z,101468.00
2022-12-03T22:09:26.891Z,101469.38
2022-12-03T22:11:56.951Z,101476.53
2022-12-03T22:14:25.093Z,101489.69
2022-12-03T22:16:52.680Z,101470.00
2022-12-03T22:19:24.758Z,101470.19
2022-12-03T22:21:52.488Z,101463.81
2022-12-03T22:24:20.378Z,101468.56
2022-12-03T22:26:47.918Z,101475.78
2022-12-03T22:29:15.671Z,101473.59
2022-12-03T22:31:44.346Z,101467.41
2022-12-03T22:34:12.190Z,101471.97
2022-12-03T22:36:39.699Z,101469.22
2022-12-03T22:39:07.583Z,101472.38
2022-12-03T22:41:35.166Z,101478.16
2022-12-03T22:44:02.774Z,101475.38
2022-12-03T22:46:30.879Z,101471.97
2022-12-03T22:49:01.810Z,101469.41
2022-12-03T22:51:33.025Z,101476.94
2022-12-03T22:54:01.866Z,101471.59
2022-12-03T22:56:30.580Z,101463.63
2022-12-03T22:58:58.760Z,101457.84
2022-12-03T23:01:32.170Z,101461.41
2022-12-03T23:04:01.187Z,101459.63
2022-12-03T23:06:30.523Z,101448.28
2022-12-03T23:08:58.863Z,101456.66
2022-12-03T23:11:27.490Z,101455.25
2022-12-03T23:13:55.188Z,101451.03
2022-12-03T23:16:26.734Z,101446.69
2022-12-03T23:18:54.801Z,101453.47
2022-12-03T23:21:29.977Z,101455.03
2022-12-03T23:23:59.445Z,101450.84
2022-12-03T23:26:28.365Z,101447.66
2022-12-03T23:28:56.624Z,101450.03
2022-12-03T23:31:27.829Z,101456.38
2022-12-03T23:33:56.963Z,101455.03
2022-12-03T23:36:27.195Z,101460.41
2022-12-03T23:38:54.879Z,101461.16
2022-12-03T23:41:23.950Z,101453.63
2022-12-03T23:43:52.453Z,101459.00
2022-12-03T23:46:23.725Z,101451.81
2022-12-03T23:48:52.223Z,101456.66
2022-12-03T23:51:23.799Z,101455.62
2022-12-03T23:53:53.179Z,101461.41
2022-12-03T23:56:24.237Z,101459.41
2022-12-03T23:58:51.806Z,101457.81
